sensor_id;sensor_type;location;lat;lon;timestamp;temperature;humidity
73683;DHT22;72538;48.146;11.740;2023-10-08T00:00:25;17.50;43.70
73683;DHT22;72538;48.146;11.740;2023-10-08T00:03:11;17.50;44.00
73683;DHT22;72538;48.146;11.740;2023-10-08T00:05:39;17.50;44.40
73683;DHT22;72538;48.146;11.740;2023-10-08T00:08:06;17.50;44.40
73683;DHT22;72538;48.146;11.740;2023-10-08T00:10:36;17.50;45.10
73683;DHT22;72538;48.146;11.740;2023-10-08T00:13:04;17.40;45.60
73683;DHT22;72538;48.146;11.740;2023-10-08T00:15:32;17.40;45.80
73683;DHT22;72538;48.146;11.740;2023-10-08T00:17:57;17.40;45.70
73683;DHT22;72538;48.146;11.740;2023-10-08T00:20:25;17.40;46.00
73683;DHT22;72538;48.146;11.740;2023-10-08T00:22:51;17.40;45.60
73683;DHT22;72538;48.146;11.740;2023-10-08T00:25:19;17.50;45.30
73683;DHT22;72538;48.146;11.740;2023-10-08T00:27:44;17.50;45.50
73683;DHT22;72538;48.146;11.740;2023-10-08T00:30:12;17.50;46.10
73683;DHT22;72538;48.146;11.740;2023-10-08T00:32:40;17.50;45.90
73683;DHT22;72538;48.146;11.740;2023-10-08T00:35:08;17.50;45.70
73683;DHT22;72538;48.146;11.740;2023-10-08T00:37:36;17.50;46.30
73683;DHT22;72538;48.146;11.740;2023-10-08T00:40:02;17.50;46.10
73683;DHT22;72538;48.146;11.740;2023-10-08T00:42:30;17.60;45.80
73683;DHT22;72538;48.146;11.740;2023-10-08T00:44:56;17.70;45.70
73683;DHT22;72538;48.146;11.740;2023-10-08T00:47:22;17.70;46.10
73683;DHT22;72538;48.146;11.740;2023-10-08T00:49:51;17.70;45.90
73683;DHT22;72538;48.146;11.740;2023-10-08T00:52:35;17.80;45.80
73683;DHT22;72538;48.146;11.740;2023-10-08T00:55:09;17.90;46.00
73683;DHT22;72538;48.146;11.740;2023-10-08T00:57:36;17.90;46.00
73683;DHT22;72538;48.146;11.740;2023-10-08T01:00:05;17.90;45.60
73683;DHT22;72538;48.146;11.740;2023-10-08T01:02:35;17.90;46.30
73683;DHT22;72538;48.146;11.740;2023-10-08T01:05:18;18.00;46.10
73683;DHT22;72538;48.146;11.740;2023-10-08T01:07:47;18.00;46.20
73683;DHT22;72538;48.146;11.740;2023-10-08T01:10:16;18.00;46.10
73683;DHT22;72538;48.146;11.740;2023-10-08T01:12:44;18.10;45.60
73683;DHT22;72538;48.146;11.740;2023-10-08T01:15:12;18.10;46.10
73683;DHT22;72538;48.146;11.740;2023-10-08T01:17:51;18.20;45.60
73683;DHT22;72538;48.146;11.740;2023-10-08T01:20:20;18.30;45.60
73683;DHT22;72538;48.146;11.740;2023-10-08T01:22:48;18.30;46.10
73683;DHT22;72538;48.146;11.740;2023-10-08T01:25:14;18.30;45.50
73683;DHT22;72538;48.146;11.740;2023-10-08T01:27:41;18.40;45.60
73683;DHT22;72538;48.146;11.740;2023-10-08T01:30:08;18.40;46.10
73683;DHT22;72538;48.146;11.740;2023-10-08T01:32:36;18.40;45.10
73683;DHT22;72538;48.146;11.740;2023-10-08T01:35:02;18.40;45.50
73683;DHT22;72538;48.146;11.740;2023-10-08T01:37:30;18.40;45.60
73683;DHT22;72538;48.146;11.740;2023-10-08T01:39:57;18.40;46.00
73683;DHT22;72538;48.146;11.740;2023-10-08T01:42:25;18.40;45.10
73683;DHT22;72538;48.146;11.740;2023-10-08T01:44:52;18.40;44.80
73683;DHT22;72538;48.146;11.740;2023-10-08T01:47:20;18.40;44.80
73683;DHT22;72538;48.146;11.740;2023-10-08T01:49:46;18.50;45.00
73683;DHT22;72538;48.146;11.740;2023-10-08T01:52:12;18.50;45.20
73683;DHT22;72538;48.146;11.740;2023-10-08T01:54:40;18.50;44.90
73683;DHT22;72538;48.146;11.740;2023-10-08T01:57:06;18.50;44.90
73683;DHT22;72538;48.146;11.740;2023-10-08T01:59:34;18.40;45.80
73683;DHT22;72538;48.146;11.740;2023-10-08T02:01:59;18.30;46.00
73683;DHT22;72538;48.146;11.740;2023-10-08T02:04:25;18.40;46.10
73683;DHT22;72538;48.146;11.740;2023-10-08T02:06:51;18.30;45.50
73683;DHT22;72538;48.146;11.740;2023-10-08T02:09:16;18.30;45.90
73683;DHT22;72538;48.146;11.740;2023-10-08T02:11:45;18.40;45.60
73683;DHT22;72538;48.146;11.740;2023-10-08T02:14:11;18.40;45.40
73683;DHT22;72538;48.146;11.740;2023-10-08T02:16:39;18.40;45.70
73683;DHT22;72538;48.146;11.740;2023-10-08T02:19:04;18.40;45.80
73683;DHT22;72538;48.146;11.740;2023-10-08T02:21:32;18.40;45.80
73683;DHT22;72538;48.146;11.740;2023-10-08T02:24:00;18.40;45.70
73683;DHT22;72538;48.146;11.740;2023-10-08T02:26:27;18.50;45.00
73683;DHT22;72538;48.146;11.740;2023-10-08T02:28:53;18.50;45.10
73683;DHT22;72538;48.146;11.740;2023-10-08T02:31:19;18.50;45.00
73683;DHT22;72538;48.146;11.740;2023-10-08T02:33:45;18.50;44.50
73683;DHT22;72538;48.146;11.740;2023-10-08T02:36:11;18.60;44.70
73683;DHT22;72538;48.146;11.740;2023-10-08T02:38:38;18.60;44.80
73683;DHT22;72538;48.146;11.740;2023-10-08T02:41:04;18.50;45.20
73683;DHT22;72538;48.146;11.740;2023-10-08T02:43:33;18.60;44.10
73683;DHT22;72538;48.146;11.740;2023-10-08T02:46:02;18.60;45.20
73683;DHT22;72538;48.146;11.740;2023-10-08T02:48:30;18.50;44.30
73683;DHT22;72538;48.146;11.740;2023-10-08T02:50:55;18.50;44.50
73683;DHT22;72538;48.146;11.740;2023-10-08T02:53:23;18.50;44.70
73683;DHT22;72538;48.146;11.740;2023-10-08T02:55:50;18.60;44.30
73683;DHT22;72538;48.146;11.740;2023-10-08T02:58:16;18.50;45.00
73683;DHT22;72538;48.146;11.740;2023-10-08T03:00:46;18.40;45.70
73683;DHT22;72538;48.146;11.740;2023-10-08T03:03:18;18.30;45.70
73683;DHT22;72538;48.146;11.740;2023-10-08T03:05:46;18.30;45.90
73683;DHT22;72538;48.146;11.740;2023-10-08T03:08:16;18.30;46.10
73683;DHT22;72538;48.146;11.740;2023-10-08T03:10:47;18.20;45.90
73683;DHT22;72538;48.146;11.740;2023-10-08T03:13:18;18.20;46.10
73683;DHT22;72538;48.146;11.740;2023-10-08T03:15:45;18.10;46.50
73683;DHT22;72538;48.146;11.740;2023-10-08T03:18:28;18.10;46.70
73683;DHT22;72538;48.146;11.740;2023-10-08T03:20:58;18.00;46.40
73683;DHT22;72538;48.146;11.740;2023-10-08T03:23:26;18.00;46.90
73683;DHT22;72538;48.146;11.740;2023-10-08T03:25:56;18.00;47.50
73683;DHT22;72538;48.146;11.740;2023-10-08T03:28:23;17.90;47.90
73683;DHT22;72538;48.146;11.740;2023-10-08T03:30:51;17.90;47.50
73683;DHT22;72538;48.146;11.740;2023-10-08T03:33:20;17.80;47.80
73683;DHT22;72538;48.146;11.740;2023-10-08T03:35:49;17.70;47.80
73683;DHT22;72538;48.146;11.740;2023-10-08T03:38:20;17.70;48.40
73683;DHT22;72538;48.146;11.740;2023-10-08T03:40:51;17.80;47.70
73683;DHT22;72538;48.146;11.740;2023-10-08T03:43:18;17.70;48.40
73683;DHT22;72538;48.146;11.740;2023-10-08T03:45:49;17.70;48.50
73683;DHT22;72538;48.146;11.740;2023-10-08T03:48:20;17.70;50.00
73683;DHT22;72538;48.146;11.740;2023-10-08T03:50:49;17.60;48.90
73683;DHT22;72538;48.146;11.740;2023-10-08T03:53:16;17.60;48.80
73683;DHT22;72538;48.146;11.740;2023-10-08T03:55:42;17.60;49.70
73683;DHT22;72538;48.146;11.740;2023-10-08T03:58:09;17.50;50.90
73683;DHT22;72538;48.146;11.740;2023-10-08T04:00:39;17.50;50.00
73683;DHT22;72538;48.146;11.740;2023-10-08T04:03:08;17.50;50.20
73683;DHT22;72538;48.146;11.740;2023-10-08T04:05:36;17.40;50.10
73683;DHT22;72538;48.146;11.740;2023-10-08T04:08:20;17.40;49.80
73683;DHT22;72538;48.146;11.740;2023-10-08T04:10:48;17.40;50.40
73683;DHT22;72538;48.146;11.740;2023-10-08T04:13:15;17.40;50.90
73683;DHT22;72538;48.146;11.740;2023-10-08T04:15:42;17.40;51.40
73683;DHT22;72538;48.146;11.740;2023-10-08T04:18:08;17.40;50.70
73683;DHT22;72538;48.146;11.740;2023-10-08T04:20:34;17.40;51.30
73683;DHT22;72538;48.146;11.740;2023-10-08T04:23:04;17.30;51.60
73683;DHT22;72538;48.146;11.740;2023-10-08T04:25:32;17.30;51.50
73683;DHT22;72538;48.146;11.740;2023-10-08T04:27:59;17.30;51.10
73683;DHT22;72538;48.146;11.740;2023-10-08T04:30:35;17.40;50.80
73683;DHT22;72538;48.146;11.740;2023-10-08T04:33:05;17.40;50.40
73683;DHT22;72538;48.146;11.740;2023-10-08T04:35:40;17.50;49.80
73683;DHT22;72538;48.146;11.740;2023-10-08T04:38:08;17.60;49.80
73683;DHT22;72538;48.146;11.740;2023-10-08T04:40:35;17.60;49.70
73683;DHT22;72538;48.146;11.740;2023-10-08T04:43:03;17.70;48.90
73683;DHT22;72538;48.146;11.740;2023-10-08T04:45:28;17.80;49.40
73683;DHT22;72538;48.146;11.740;2023-10-08T04:47:56;17.80;48.70
73683;DHT22;72538;48.146;11.740;2023-10-08T04:50:24;17.80;49.10
73683;DHT22;72538;48.146;11.740;2023-10-08T04:52:51;17.80;49.40
73683;DHT22;72538;48.146;11.740;2023-10-08T04:55:19;17.80;48.60
73683;DHT22;72538;48.146;11.740;2023-10-08T04:57:47;17.80;49.00
73683;DHT22;72538;48.146;11.740;2023-10-08T05:00:14;17.80;49.60
73683;DHT22;72538;48.146;11.740;2023-10-08T05:02:42;17.80;49.50
73683;DHT22;72538;48.146;11.740;2023-10-08T05:05:19;17.70;49.60
73683;DHT22;72538;48.146;11.740;2023-10-08T05:07:46;17.80;49.00
73683;DHT22;72538;48.146;11.740;2023-10-08T05:10:15;17.70;49.40
73683;DHT22;72538;48.146;11.740;2023-10-08T05:12:53;17.70;49.50
73683;DHT22;72538;48.146;11.740;2023-10-08T05:15:32;17.70;50.10
73683;DHT22;72538;48.146;11.740;2023-10-08T05:18:01;17.60;50.60
73683;DHT22;72538;48.146;11.740;2023-10-08T05:20:28;17.60;49.80
73683;DHT22;72538;48.146;11.740;2023-10-08T05:23:14;17.60;51.70
73683;DHT22;72538;48.146;11.740;2023-10-08T05:25:52;17.50;51.50
73683;DHT22;72538;48.146;11.740;2023-10-08T05:28:26;17.50;50.60
73683;DHT22;72538;48.146;11.740;2023-10-08T05:30:52;17.60;50.30
73683;DHT22;72538;48.146;11.740;2023-10-08T05:33:37;17.50;50.60
73683;DHT22;72538;48.146;11.740;2023-10-08T05:36:17;17.50;51.40
73683;DHT22;72538;48.146;11.740;2023-10-08T05:38:47;17.50;51.50
73683;DHT22;72538;48.146;11.740;2023-10-08T05:41:32;17.50;52.40
73683;DHT22;72538;48.146;11.740;2023-10-08T05:43:59;17.50;51.20
73683;DHT22;72538;48.146;11.740;2023-10-08T05:46:42;17.40;51.50
73683;DHT22;72538;48.146;11.740;2023-10-08T05:49:19;17.40;51.40
73683;DHT22;72538;48.146;11.740;2023-10-08T05:51:58;17.50;50.70
73683;DHT22;72538;48.146;11.740;2023-10-08T05:54:26;17.50;50.80
73683;DHT22;72538;48.146;11.740;2023-10-08T05:56:59;17.40;51.60
73683;DHT22;72538;48.146;11.740;2023-10-08T05:59:33;17.40;51.30
73683;DHT22;72538;48.146;11.740;2023-10-08T06:02:01;17.30;52.40
73683;DHT22;72538;48.146;11.740;2023-10-08T06:04:28;17.20;52.10
73683;DHT22;72538;48.146;11.740;2023-10-08T06:07:11;17.20;52.50
73683;DHT22;72538;48.146;11.740;2023-10-08T06:09:42;17.10;51.50
73683;DHT22;72538;48.146;11.740;2023-10-08T06:12:09;17.10;52.00
73683;DHT22;72538;48.146;11.740;2023-10-08T06:14:37;17.10;52.00
73683;DHT22;72538;48.146;11.740;2023-10-08T06:17:19;17.10;52.50
73683;DHT22;72538;48.146;11.740;2023-10-08T06:20:02;17.00;52.00
73683;DHT22;72538;48.146;11.740;2023-10-08T06:22:33;17.00;51.80
73683;DHT22;72538;48.146;11.740;2023-10-08T06:24:58;17.00;51.80
73683;DHT22;72538;48.146;11.740;2023-10-08T06:27:26;17.10;51.50
73683;DHT22;72538;48.146;11.740;2023-10-08T06:29:52;17.10;51.20
73683;DHT22;72538;48.146;11.740;2023-10-08T06:32:19;17.20;52.30
73683;DHT22;72538;48.146;11.740;2023-10-08T06:34:47;17.20;52.00
73683;DHT22;72538;48.146;11.740;2023-10-08T06:37:13;17.30;53.10
73683;DHT22;72538;48.146;11.740;2023-10-08T06:39:40;17.40;51.30
73683;DHT22;72538;48.146;11.740;2023-10-08T06:42:08;17.50;52.00
73683;DHT22;72538;48.146;11.740;2023-10-08T06:44:34;17.60;51.60
73683;DHT22;72538;48.146;11.740;2023-10-08T06:47:01;17.70;50.80
73683;DHT22;72538;48.146;11.740;2023-10-08T06:49:27;17.90;50.80
73683;DHT22;72538;48.146;11.740;2023-10-08T06:51:55;18.10;49.80
73683;DHT22;72538;48.146;11.740;2023-10-08T06:54:21;18.40;49.70
73683;DHT22;72538;48.146;11.740;2023-10-08T06:56:48;18.50;49.00
73683;DHT22;72538;48.146;11.740;2023-10-08T06:59:16;18.60;49.60
73683;DHT22;72538;48.146;11.740;2023-10-08T07:01:46;18.80;48.90
73683;DHT22;72538;48.146;11.740;2023-10-08T07:04:12;19.10;49.00
73683;DHT22;72538;48.146;11.740;2023-10-08T07:06:39;19.30;49.00
73683;DHT22;72538;48.146;11.740;2023-10-08T07:09:07;19.60;46.60
73683;DHT22;72538;48.146;11.740;2023-10-08T07:11:50;20.10;47.10
73683;DHT22;72538;48.146;11.740;2023-10-08T07:14:18;20.50;47.20
73683;DHT22;72538;48.146;11.740;2023-10-08T07:16:44;20.70;46.40
73683;DHT22;72538;48.146;11.740;2023-10-08T07:19:09;20.70;47.60
73683;DHT22;72538;48.146;11.740;2023-10-08T07:21:45;20.60;45.70
73683;DHT22;72538;48.146;11.740;2023-10-08T07:24:15;20.40;47.30
73683;DHT22;72538;48.146;11.740;2023-10-08T07:26:43;20.40;46.10
73683;DHT22;72538;48.146;11.740;2023-10-08T07:29:14;20.50;47.60
73683;DHT22;72538;48.146;11.740;2023-10-08T07:31:43;20.60;48.20
73683;DHT22;72538;48.146;11.740;2023-10-08T07:34:11;20.70;47.60
73683;DHT22;72538;48.146;11.740;2023-10-08T07:36:47;20.90;47.60
73683;DHT22;72538;48.146;11.740;2023-10-08T07:39:14;21.30;45.90
73683;DHT22;72538;48.146;11.740;2023-10-08T07:41:51;21.60;46.10
73683;DHT22;72538;48.146;11.740;2023-10-08T07:44:20;21.50;47.00
73683;DHT22;72538;48.146;11.740;2023-10-08T07:46:52;21.40;46.50
73683;DHT22;72538;48.146;11.740;2023-10-08T07:49:20;21.10;45.80
73683;DHT22;72538;48.146;11.740;2023-10-08T07:51:48;20.90;48.00
73683;DHT22;72538;48.146;11.740;2023-10-08T07:54:20;20.70;48.90
73683;DHT22;72538;48.146;11.740;2023-10-08T07:56:49;20.50;47.70
73683;DHT22;72538;48.146;11.740;2023-10-08T07:59:15;20.20;49.10
73683;DHT22;72538;48.146;11.740;2023-10-08T08:01:45;20.00;49.80
73683;DHT22;72538;48.146;11.740;2023-10-08T08:04:12;19.80;50.60
73683;DHT22;72538;48.146;11.740;2023-10-08T08:06:42;19.70;49.90
73683;DHT22;72538;48.146;11.740;2023-10-08T08:09:08;19.60;51.50
73683;DHT22;72538;48.146;11.740;2023-10-08T08:11:38;19.60;52.30
73683;DHT22;72538;48.146;11.740;2023-10-08T08:14:04;19.60;53.40
73683;DHT22;72538;48.146;11.740;2023-10-08T08:16:32;19.60;53.90
73683;DHT22;72538;48.146;11.740;2023-10-08T08:18:57;19.70;52.40
73683;DHT22;72538;48.146;11.740;2023-10-08T08:21:25;19.70;53.50
73683;DHT22;72538;48.146;11.740;2023-10-08T08:23:51;19.80;51.70
73683;DHT22;72538;48.146;11.740;2023-10-08T08:26:20;19.90;52.40
73683;DHT22;72538;48.146;11.740;2023-10-08T08:31:28;19.90;51.80
73683;DHT22;72538;48.146;11.740;2023-10-08T08:33:58;19.90;50.50
73683;DHT22;72538;48.146;11.740;2023-10-08T08:36:38;20.00;51.20
73683;DHT22;72538;48.146;11.740;2023-10-08T08:39:05;19.80;52.20
73683;DHT22;72538;48.146;11.740;2023-10-08T08:41:37;19.70;52.30
73683;DHT22;72538;48.146;11.740;2023-10-08T08:44:04;19.50;53.50
73683;DHT22;72538;48.146;11.740;2023-10-08T08:46:34;19.40;53.40
73683;DHT22;72538;48.146;11.740;2023-10-08T08:49:06;19.30;53.00
73683;DHT22;72538;48.146;11.740;2023-10-08T08:51:34;19.20;54.60
73683;DHT22;72538;48.146;11.740;2023-10-08T08:54:01;19.20;54.00
73683;DHT22;72538;48.146;11.740;2023-10-08T08:56:30;19.20;53.30
73683;DHT22;72538;48.146;11.740;2023-10-08T08:58:57;19.30;53.30
73683;DHT22;72538;48.146;11.740;2023-10-08T09:01:25;19.40;54.50
73683;DHT22;72538;48.146;11.740;2023-10-08T09:03:51;19.30;53.60
73683;DHT22;72538;48.146;11.740;2023-10-08T09:06:17;19.40;52.10
73683;DHT22;72538;48.146;11.740;2023-10-08T09:08:43;19.50;53.50
73683;DHT22;72538;48.146;11.740;2023-10-08T09:11:16;19.50;53.90
73683;DHT22;72538;48.146;11.740;2023-10-08T09:13:42;19.50;53.10
73683;DHT22;72538;48.146;11.740;2023-10-08T09:16:15;19.50;53.30
73683;DHT22;72538;48.146;11.740;2023-10-08T09:18:42;19.60;53.70
73683;DHT22;72538;48.146;11.740;2023-10-08T09:21:16;19.60;53.60
73683;DHT22;72538;48.146;11.740;2023-10-08T09:23:50;19.60;52.10
73683;DHT22;72538;48.146;11.740;2023-10-08T09:26:23;19.60;54.60
73683;DHT22;72538;48.146;11.740;2023-10-08T09:28:50;19.60;54.60
73683;DHT22;72538;48.146;11.740;2023-10-08T09:31:17;19.50;55.00
73683;DHT22;72538;48.146;11.740;2023-10-08T09:33:54;19.50;54.50
73683;DHT22;72538;48.146;11.740;2023-10-08T09:36:22;19.60;54.40
73683;DHT22;72538;48.146;11.740;2023-10-08T09:38:50;19.60;55.70
73683;DHT22;72538;48.146;11.740;2023-10-08T09:41:19;19.70;55.30
73683;DHT22;72538;48.146;11.740;2023-10-08T09:43:46;19.80;57.40
73683;DHT22;72538;48.146;11.740;2023-10-08T09:46:18;20.00;56.20
73683;DHT22;72538;48.146;11.740;2023-10-08T09:48:50;20.10;57.30
73683;DHT22;72538;48.146;11.740;2023-10-08T09:51:20;20.30;56.90
73683;DHT22;72538;48.146;11.740;2023-10-08T09:56:20;20.50;56.40
73683;DHT22;72538;48.146;11.740;2023-10-08T09:58:46;20.60;55.80
73683;DHT22;72538;48.146;11.740;2023-10-08T10:01:15;20.80;56.40
73683;DHT22;72538;48.146;11.740;2023-10-08T10:03:44;20.90;55.60
73683;DHT22;72538;48.146;11.740;2023-10-08T10:06:15;20.90;57.00
73683;DHT22;72538;48.146;11.740;2023-10-08T10:08:44;21.00;55.10
73683;DHT22;72538;48.146;11.740;2023-10-08T10:11:10;21.00;56.60
73683;DHT22;72538;48.146;11.740;2023-10-08T10:13:43;21.00;55.40
73683;DHT22;72538;48.146;11.740;2023-10-08T10:16:21;21.00;56.20
73683;DHT22;72538;48.146;11.740;2023-10-08T10:18:50;21.10;56.30
73683;DHT22;72538;48.146;11.740;2023-10-08T10:23:46;21.10;54.80
73683;DHT22;72538;48.146;11.740;2023-10-08T10:26:29;20.90;57.20
73683;DHT22;72538;48.146;11.740;2023-10-08T10:31:50;20.80;56.60
73683;DHT22;72538;48.146;11.740;2023-10-08T10:34:24;20.80;56.50
73683;DHT22;72538;48.146;11.740;2023-10-08T10:36:54;20.70;56.30
73683;DHT22;72538;48.146;11.740;2023-10-08T10:39:31;20.60;55.80
73683;DHT22;72538;48.146;11.740;2023-10-08T10:42:00;20.50;55.60
73683;DHT22;72538;48.146;11.740;2023-10-08T10:44:29;20.40;56.40
73683;DHT22;72538;48.146;11.740;2023-10-08T10:46:56;20.40;56.70
73683;DHT22;72538;48.146;11.740;2023-10-08T10:49:48;20.30;56.80
73683;DHT22;72538;48.146;11.740;2023-10-08T10:52:28;20.30;57.10
73683;DHT22;72538;48.146;11.740;2023-10-08T10:55:02;20.20;57.40
73683;DHT22;72538;48.146;11.740;2023-10-08T10:57:44;20.10;58.00
73683;DHT22;72538;48.146;11.740;2023-10-08T11:00:11;20.00;58.20
73683;DHT22;72538;48.146;11.740;2023-10-08T11:02:56;19.90;58.50
73683;DHT22;72538;48.146;11.740;2023-10-08T11:05:26;19.90;58.60
73683;DHT22;72538;48.146;11.740;2023-10-08T11:07:58;19.90;57.90
73683;DHT22;72538;48.146;11.740;2023-10-08T11:10:26;19.90;58.50
73683;DHT22;72538;48.146;11.740;2023-10-08T11:12:54;19.90;59.00
73683;DHT22;72538;48.146;11.740;2023-10-08T11:15:25;20.00;57.80
73683;DHT22;72538;48.146;11.740;2023-10-08T11:17:52;20.00;57.90
73683;DHT22;72538;48.146;11.740;2023-10-08T11:20:27;20.10;57.60
73683;DHT22;72538;48.146;11.740;2023-10-08T11:22:53;20.10;59.60
73683;DHT22;72538;48.146;11.740;2023-10-08T11:25:21;20.00;58.10
73683;DHT22;72538;48.146;11.740;2023-10-08T11:27:51;20.10;59.00
73683;DHT22;72538;48.146;11.740;2023-10-08T11:30:19;20.10;58.40
73683;DHT22;72538;48.146;11.740;2023-10-08T11:32:46;20.10;58.40
73683;DHT22;72538;48.146;11.740;2023-10-08T11:35:16;20.10;60.00
73683;DHT22;72538;48.146;11.740;2023-10-08T11:37:46;20.00;61.20
73683;DHT22;72538;48.146;11.740;2023-10-08T11:40:26;20.00;59.80
73683;DHT22;72538;48.146;11.740;2023-10-08T11:42:56;20.10;60.30
73683;DHT22;72538;48.146;11.740;2023-10-08T11:45:25;20.00;61.30
73683;DHT22;72538;48.146;11.740;2023-10-08T11:47:56;20.10;59.30
73683;DHT22;72538;48.146;11.740;2023-10-08T11:50:26;20.10;59.90
73683;DHT22;72538;48.146;11.740;2023-10-08T11:52:59;20.20;59.80
73683;DHT22;72538;48.146;11.740;2023-10-08T11:55:27;20.20;58.70
73683;DHT22;72538;48.146;11.740;2023-10-08T11:57:53;20.30;58.40
73683;DHT22;72538;48.146;11.740;2023-10-08T12:00:19;20.40;58.00
73683;DHT22;72538;48.146;11.740;2023-10-08T12:02:46;20.50;59.40
73683;DHT22;72538;48.146;11.740;2023-10-08T12:05:13;20.50;57.70
73683;DHT22;72538;48.146;11.740;2023-10-08T12:07:49;20.60;58.60
73683;DHT22;72538;48.146;11.740;2023-10-08T12:10:19;20.50;58.20
73683;DHT22;72538;48.146;11.740;2023-10-08T12:12:50;20.60;57.60
73683;DHT22;72538;48.146;11.740;2023-10-08T12:15:22;20.70;58.50
73683;DHT22;72538;48.146;11.740;2023-10-08T12:17:50;20.70;57.20
73683;DHT22;72538;48.146;11.740;2023-10-08T12:20:37;20.60;57.70
73683;DHT22;72538;48.146;11.740;2023-10-08T12:23:05;20.60;59.20
73683;DHT22;72538;48.146;11.740;2023-10-08T12:25:34;20.60;57.60
73683;DHT22;72538;48.146;11.740;2023-10-08T12:28:00;20.50;57.90
73683;DHT22;72538;48.146;11.740;2023-10-08T12:30:28;20.40;58.90
73683;DHT22;72538;48.146;11.740;2023-10-08T12:32:57;20.40;58.80
73683;DHT22;72538;48.146;11.740;2023-10-08T12:35:23;20.30;58.60
73683;DHT22;72538;48.146;11.740;2023-10-08T12:37:50;20.30;59.20
73683;DHT22;72538;48.146;11.740;2023-10-08T12:40:16;20.20;58.70
73683;DHT22;72538;48.146;11.740;2023-10-08T12:42:51;20.20;58.90
73683;DHT22;72538;48.146;11.740;2023-10-08T12:45:20;20.20;58.30
73683;DHT22;72538;48.146;11.740;2023-10-08T12:47:50;20.20;59.10
73683;DHT22;72538;48.146;11.740;2023-10-08T12:50:18;20.20;59.70
73683;DHT22;72538;48.146;11.740;2023-10-08T12:52:51;20.20;58.50
73683;DHT22;72538;48.146;11.740;2023-10-08T12:55:22;20.30;59.20
73683;DHT22;72538;48.146;11.740;2023-10-08T12:57:52;20.30;58.10
73683;DHT22;72538;48.146;11.740;2023-10-08T13:00:20;20.40;58.40
73683;DHT22;72538;48.146;11.740;2023-10-08T13:02:48;20.40;59.20
73683;DHT22;72538;48.146;11.740;2023-10-08T13:05:15;20.40;59.10
73683;DHT22;72538;48.146;11.740;2023-10-08T13:07:43;20.40;58.00
73683;DHT22;72538;48.146;11.740;2023-10-08T13:10:10;20.40;59.20
73683;DHT22;72538;48.146;11.740;2023-10-08T13:12:38;20.50;58.10
73683;DHT22;72538;48.146;11.740;2023-10-08T13:15:04;20.50;58.20
73683;DHT22;72538;48.146;11.740;2023-10-08T13:17:32;20.50;58.50
73683;DHT22;72538;48.146;11.740;2023-10-08T13:19:57;20.70;58.10
73683;DHT22;72538;48.146;11.740;2023-10-08T13:22:23;20.80;57.20
73683;DHT22;72538;48.146;11.740;2023-10-08T13:24:49;20.80;58.40
73683;DHT22;72538;48.146;11.740;2023-10-08T13:27:16;20.90;57.70
73683;DHT22;72538;48.146;11.740;2023-10-08T13:29:42;21.00;57.10
73683;DHT22;72538;48.146;11.740;2023-10-08T13:32:09;21.10;58.30
73683;DHT22;72538;48.146;11.740;2023-10-08T13:34:36;21.20;57.90
73683;DHT22;72538;48.146;11.740;2023-10-08T13:37:02;21.30;58.50
73683;DHT22;72538;48.146;11.740;2023-10-08T13:39:28;21.40;57.40
73683;DHT22;72538;48.146;11.740;2023-10-08T13:41:54;21.40;58.70
73683;DHT22;72538;48.146;11.740;2023-10-08T13:44:21;21.40;58.70
73683;DHT22;72538;48.146;11.740;2023-10-08T13:46:49;21.40;58.30
73683;DHT22;72538;48.146;11.740;2023-10-08T13:49:16;21.40;58.90
73683;DHT22;72538;48.146;11.740;2023-10-08T13:51:42;21.40;58.30
73683;DHT22;72538;48.146;11.740;2023-10-08T13:54:10;21.30;58.40
73683;DHT22;72538;48.146;11.740;2023-10-08T13:56:37;21.30;58.60
73683;DHT22;72538;48.146;11.740;2023-10-08T13:59:04;21.40;59.80
73683;DHT22;72538;48.146;11.740;2023-10-08T14:01:32;21.40;60.10
73683;DHT22;72538;48.146;11.740;2023-10-08T14:04:04;21.20;60.00
73683;DHT22;72538;48.146;11.740;2023-10-08T14:06:34;21.10;60.20
73683;DHT22;72538;48.146;11.740;2023-10-08T14:09:01;21.20;59.90
73683;DHT22;72538;48.146;11.740;2023-10-08T14:11:30;21.20;59.90
73683;DHT22;72538;48.146;11.740;2023-10-08T14:13:56;21.20;59.70
73683;DHT22;72538;48.146;11.740;2023-10-08T14:16:24;21.10;59.40
73683;DHT22;72538;48.146;11.740;2023-10-08T14:18:52;21.10;60.70
73683;DHT22;72538;48.146;11.740;2023-10-08T14:21:22;21.00;60.00
73683;DHT22;72538;48.146;11.740;2023-10-08T14:23:52;21.00;60.90
73683;DHT22;72538;48.146;11.740;2023-10-08T14:26:19;21.00;61.30
73683;DHT22;72538;48.146;11.740;2023-10-08T14:28:48;21.00;62.20
73683;DHT22;72538;48.146;11.740;2023-10-08T14:31:20;21.00;61.50
73683;DHT22;72538;48.146;11.740;2023-10-08T14:33:50;21.00;61.20
73683;DHT22;72538;48.146;11.740;2023-10-08T14:36:24;21.00;61.50
73683;DHT22;72538;48.146;11.740;2023-10-08T14:39:09;21.10;63.00
73683;DHT22;72538;48.146;11.740;2023-10-08T14:41:54;21.00;61.00
73683;DHT22;72538;48.146;11.740;2023-10-08T14:44:38;20.80;63.40
73683;DHT22;72538;48.146;11.740;2023-10-08T14:47:05;20.80;62.90
73683;DHT22;72538;48.146;11.740;2023-10-08T14:49:32;20.80;63.50
73683;DHT22;72538;48.146;11.740;2023-10-08T14:51:59;20.80;64.50
73683;DHT22;72538;48.146;11.740;2023-10-08T14:54:25;20.70;64.70
73683;DHT22;72538;48.146;11.740;2023-10-08T14:56:51;20.70;64.00
73683;DHT22;72538;48.146;11.740;2023-10-08T14:59:18;20.70;64.50
73683;DHT22;72538;48.146;11.740;2023-10-08T15:01:44;20.70;65.60
73683;DHT22;72538;48.146;11.740;2023-10-08T15:04:12;20.60;63.80
73683;DHT22;72538;48.146;11.740;2023-10-08T15:06:38;20.60;64.60
73683;DHT22;72538;48.146;11.740;2023-10-08T15:09:06;20.50;65.90
73683;DHT22;72538;48.146;11.740;2023-10-08T15:11:33;20.40;65.30
73683;DHT22;72538;48.146;11.740;2023-10-08T15:14:04;20.40;68.20
73683;DHT22;72538;48.146;11.740;2023-10-08T15:16:36;20.40;67.00
73683;DHT22;72538;48.146;11.740;2023-10-08T15:19:02;20.30;67.70
73683;DHT22;72538;48.146;11.740;2023-10-08T15:21:30;20.30;68.50
73683;DHT22;72538;48.146;11.740;2023-10-08T15:24:00;20.20;67.90
73683;DHT22;72538;48.146;11.740;2023-10-08T15:26:32;20.20;69.00
73683;DHT22;72538;48.146;11.740;2023-10-08T15:28:58;20.10;70.10
73683;DHT22;72538;48.146;11.740;2023-10-08T15:31:26;20.00;71.60
73683;DHT22;72538;48.146;11.740;2023-10-08T15:33:52;20.00;70.70
73683;DHT22;72538;48.146;11.740;2023-10-08T15:36:19;19.90;69.20
73683;DHT22;72538;48.146;11.740;2023-10-08T15:38:45;19.80;70.20